createdAt,value
2022-12-16T00:01:25.132Z,25.67
2022-12-16T00:03:54.808Z,27.63
2022-12-16T00:06:24.712Z,25.17
2022-12-16T00:08:51.885Z,23.80
2022-12-16T00:11:19.943Z,27.33
2022-12-16T00:13:47.337Z,26.80
2022-12-16T00:16:16.743Z,28.67
2022-12-16T00:18:44.605Z,28.53
2022-12-16T00:21:12.172Z,25.90
2022-12-16T00:23:39.530Z,26.87
2022-12-16T00:26:07.110Z,31.90
2022-12-16T00:28:34.465Z,26.33
2022-12-16T00:31:01.316Z,25.70
2022-12-16T00:33:28.221Z,32.77
2022-12-16T00:35:55.703Z,26.33
2022-12-16T00:38:25.518Z,25.93
2022-12-16T00:40:52.491Z,28.13
2022-12-16T00:43:20.401Z,28.60
2022-12-16T00:45:48.150Z,28.00
2022-12-16T00:48:15.763Z,27.30
2022-12-16T00:50:48.875Z,23.73
2022-12-16T00:53:16.002Z,29.47
2022-12-16T00:55:43.449Z,27.57
2022-12-16T00:58:10.595Z,30.53
2022-12-16T01:00:37.503Z,25.37
2022-12-16T01:03:04.735Z,23.57
2022-12-16T01:05:31.634Z,33.17
2022-12-16T01:07:58.580Z,28.33
2022-12-16T01:10:26.168Z,29.27
2022-12-16T01:12:53.102Z,24.20
2022-12-16T01:15:20.520Z,25.73
2022-12-16T01:17:47.392Z,25.40
2022-12-16T01:20:14.633Z,23.40
2022-12-16T01:22:41.460Z,27.00
2022-12-16T01:25:09.965Z,27.13
2022-12-16T01:27:36.706Z,28.73
2022-12-16T01:30:03.750Z,28.13
2022-12-16T01:32:30.529Z,27.20
2022-12-16T01:34:57.358Z,26.73
2022-12-16T01:37:24.824Z,22.63
2022-12-16T01:39:52.330Z,23.30
2022-12-16T01:42:21.412Z,24.10
2022-12-16T01:44:52.290Z,31.97
2022-12-16T01:47:32.992Z,25.43
2022-12-16T01:50:07.137Z,23.57
2022-12-16T01:52:40.226Z,23.43
2022-12-16T01:55:18.612Z,23.37
2022-12-16T01:57:49.996Z,24.87
2022-12-16T02:00:17.609Z,25.37
2022-12-16T02:02:46.945Z,26.63
2022-12-16T02:05:22.833Z,25.33
2022-12-16T02:08:02.687Z,26.57
2022-12-16T02:10:43.015Z,23.47
2022-12-16T02:13:30.314Z,24.30
2022-12-16T02:16:03.325Z,25.10
2022-12-16T02:19:01.500Z,23.77
2022-12-16T02:22:00.499Z,24.97
2022-12-16T02:25:10.125Z,18.43
2022-12-16T02:27:55.555Z,25.07
2022-12-16T02:30:37.401Z,22.17
2022-12-16T02:33:54.707Z,23.13
2022-12-16T02:36:36.098Z,22.53
2022-12-16T02:39:41.684Z,24.47
2022-12-16T02:42:26.474Z,25.77
2022-12-16T02:45:17.929Z,25.40
2022-12-16T02:47:45.930Z,24.90
2022-12-16T02:50:26.087Z,25.83
2022-12-16T02:52:55.836Z,26.33
2022-12-16T02:55:30.438Z,26.40
2022-12-16T02:58:16.956Z,23.17
2022-12-16T03:01:00.702Z,27.53
2022-12-16T03:03:38.872Z,27.23
2022-12-16T03:06:06.823Z,27.10
2022-12-16T03:08:38.113Z,26.83
2022-12-16T03:11:08.305Z,26.57
2022-12-16T03:13:44.128Z,24.40
2022-12-16T03:16:15.899Z,27.90
2022-12-16T03:18:47.371Z,24.77
2022-12-16T03:21:15.863Z,24.80
2022-12-16T03:23:45.622Z,22.50
2022-12-16T03:26:38.413Z,24.40
2022-12-16T03:29:13.215Z,25.03
2022-12-16T03:31:47.744Z,22.67
2022-12-16T03:34:27.855Z,28.60
2022-12-16T03:37:00.440Z,23.93
2022-12-16T03:39:27.983Z,26.93
2022-12-16T03:41:56.228Z,26.20
2022-12-16T03:44:25.335Z,21.67
2022-12-16T03:46:52.706Z,20.63
2022-12-16T03:49:19.526Z,26.60
2022-12-16T03:51:46.257Z,22.80
2022-12-16T03:54:14.180Z,22.93
2022-12-16T03:56:40.924Z,24.97
2022-12-16T03:59:07.661Z,21.23
2022-12-16T04:01:34.588Z,25.00
2022-12-16T04:04:01.594Z,23.67
2022-12-16T04:06:28.377Z,26.40
2022-12-16T04:08:55.285Z,25.20
2022-12-16T04:11:40.545Z,23.67
2022-12-16T04:14:27.632Z,24.50
2022-12-16T04:17:13.575Z,21.30
2022-12-16T04:20:01.129Z,26.13
2022-12-16T04:22:56.201Z,27.77
2022-12-16T04:25:34.856Z,22.17
2022-12-16T04:28:02.033Z,23.83
2022-12-16T04:30:34.583Z,24.77
2022-12-16T04:33:24.279Z,23.77
2022-12-16T04:36:09.700Z,20.60
2022-12-16T04:38:55.064Z,20.07
2022-12-16T04:41:40.612Z,24.50
2022-12-16T04:44:26.043Z,20.47
2022-12-16T04:47:11.829Z,23.07
2022-12-16T04:49:57.304Z,20.30
2022-12-16T04:52:42.772Z,20.10
2022-12-16T04:55:29.449Z,25.80
2022-12-16T04:58:19.280Z,25.37
2022-12-16T05:01:06.137Z,24.60
2022-12-16T05:03:52.769Z,23.87
2022-12-16T05:06:38.616Z,23.37
2022-12-16T05:09:25.011Z,25.00
2022-12-16T05:12:10.460Z,18.93
2022-12-16T05:14:56.097Z,22.47
2022-12-16T05:17:41.780Z,22.53
2022-12-16T05:20:27.359Z,23.07
2022-12-16T05:23:15.273Z,23.03
2022-12-16T05:26:01.954Z,23.67
2022-12-16T05:28:47.717Z,26.30
2022-12-16T05:31:33.277Z,23.40
2022-12-16T05:34:18.499Z,21.43
2022-12-16T05:37:03.892Z,21.13
2022-12-16T05:39:53.909Z,22.63
2022-12-16T05:42:39.489Z,23.20
2022-12-16T05:45:25.392Z,23.23
2022-12-16T05:48:10.861Z,22.33
2022-12-16T05:50:56.328Z,20.50
2022-12-16T05:53:41.864Z,21.23
2022-12-16T05:56:27.289Z,22.07
2022-12-16T05:59:12.738Z,17.13
2022-12-16T06:01:58.430Z,21.23
2022-12-16T06:04:43.839Z,20.57
2022-12-16T06:07:29.353Z,18.30
2022-12-16T06:10:14.627Z,22.60
2022-12-16T06:13:00.159Z,19.07
2022-12-16T06:15:45.815Z,21.40
2022-12-16T06:18:31.306Z,24.33
2022-12-16T06:21:16.710Z,19.00
2022-12-16T06:24:02.128Z,23.37
2022-12-16T06:26:52.084Z,20.87
2022-12-16T06:29:37.563Z,22.33
2022-12-16T06:32:23.304Z,21.47
2022-12-16T06:35:08.844Z,23.00
2022-12-16T06:37:54.025Z,21.50
2022-12-16T06:40:39.547Z,16.30
2022-12-16T06:43:24.922Z,17.50
2022-12-16T06:46:10.661Z,19.27
2022-12-16T06:48:56.009Z,19.40
2022-12-16T06:51:41.119Z,19.40
2022-12-16T06:54:26.624Z,23.43
2022-12-16T06:57:12.011Z,18.00
2022-12-16T06:59:57.511Z,17.77
2022-12-16T07:02:43.032Z,17.23
2022-12-16T07:05:28.378Z,20.30
2022-12-16T07:08:13.872Z,18.20
2022-12-16T07:11:13.636Z,18.07
2022-12-16T07:14:01.271Z,17.90
2022-12-16T07:16:46.523Z,21.57
2022-12-16T07:19:31.898Z,21.33
2022-12-16T07:22:17.297Z,23.97
2022-12-16T07:25:04.276Z,19.37
2022-12-16T07:27:49.826Z,15.47
2022-12-16T07:30:35.089Z,15.53
2022-12-16T07:33:20.547Z,16.80
2022-12-16T07:36:05.964Z,18.97
2022-12-16T07:38:51.127Z,19.70
2022-12-16T07:41:36.682Z,17.83
2022-12-16T07:44:22.004Z,21.87
2022-12-16T07:47:07.487Z,16.80
2022-12-16T07:49:53.763Z,16.87
2022-12-16T07:52:41.306Z,16.90
2022-12-16T07:55:27.156Z,19.13
2022-12-16T07:58:12.314Z,21.50
2022-12-16T08:00:57.765Z,15.33
2022-12-16T08:03:50.932Z,17.80
2022-12-16T08:06:40.336Z,17.67
2022-12-16T08:09:26.161Z,20.13
2022-12-16T08:12:11.558Z,19.00
2022-12-16T08:14:56.862Z,20.17
2022-12-16T08:17:42.106Z,19.50
2022-12-16T08:20:27.490Z,16.37
2022-12-16T08:23:12.749Z,21.83
2022-12-16T08:25:58.082Z,16.10
2022-12-16T08:28:43.523Z,19.97
2022-12-16T08:31:28.883Z,18.10
2022-12-16T08:34:14.365Z,22.30
2022-12-16T08:36:59.600Z,19.30
2022-12-16T08:39:45.125Z,19.23
2022-12-16T08:42:32.736Z,23.83
2022-12-16T08:45:18.077Z,21.37
2022-12-16T08:48:03.701Z,17.03
2022-12-16T08:50:49.148Z,19.53
2022-12-16T08:53:35.216Z,19.60
2022-12-16T08:56:20.931Z,22.03
2022-12-16T08:59:06.251Z,21.47
2022-12-16T09:01:51.735Z,20.47
2022-12-16T09:04:36.772Z,23.70
2022-12-16T09:07:22.207Z,24.93
2022-12-16T09:10:07.700Z,25.00
2022-12-16T09:12:54.198Z,18.37
2022-12-16T09:15:39.593Z,21.37
2022-12-16T09:18:25.043Z,20.50
2022-12-16T09:21:11.315Z,24.07
2022-12-16T09:23:56.945Z,24.87
2022-12-16T09:26:42.274Z,22.87
2022-12-16T09:29:27.540Z,20.27
2022-12-16T09:32:12.855Z,19.30
2022-12-16T09:34:58.180Z,21.97
2022-12-16T09:37:43.531Z,20.37
2022-12-16T09:40:32.431Z,21.73
2022-12-16T09:43:31.310Z,21.20
2022-12-16T09:46:42.856Z,18.23
2022-12-16T09:49:46.353Z,21.83
2022-12-16T09:52:34.934Z,20.47
2022-12-16T09:55:22.451Z,24.53
2022-12-16T09:58:08.346Z,17.30
2022-12-16T10:00:55.383Z,16.60
2022-12-16T10:03:55.422Z,23.17
2022-12-16T10:07:03.210Z,22.00
2022-12-16T10:09:51.113Z,14.17
2022-12-16T10:12:52.475Z,18.50
2022-12-16T10:15:59.612Z,12.47
2022-12-16T10:19:31.222Z,26.63
2022-12-16T10:22:27.786Z,28.30
2022-12-16T10:25:34.355Z,14.33
2022-12-16T10:28:52.043Z,19.50
2022-12-16T10:31:40.893Z,15.97
2022-12-16T10:34:44.586Z,19.33
2022-12-16T10:37:52.309Z,19.73
2022-12-16T10:40:41.068Z,23.43
2022-12-16T10:43:35.944Z,27.63
2022-12-16T10:46:30.891Z,23.57
2022-12-16T10:49:16.487Z,14.37
2022-12-16T10:52:06.899Z,18.77
2022-12-16T10:55:01.529Z,21.10
2022-12-16T10:58:08.230Z,19.57
2022-12-16T11:01:08.312Z,20.87
2022-12-16T11:03:56.038Z,20.00
2022-12-16T11:06:55.711Z,21.57
2022-12-16T11:09:52.292Z,24.00
2022-12-16T11:12:46.870Z,24.40
2022-12-16T11:15:41.853Z,22.10
2022-12-16T11:18:35.336Z,23.90
2022-12-16T11:21:32.480Z,23.93
2022-12-16T11:24:29.504Z,21.30
2022-12-16T11:27:19.688Z,23.13
2022-12-16T11:30:12.007Z,25.03
2022-12-16T11:33:00.874Z,25.27
2022-12-16T11:35:48.278Z,21.40
2022-12-16T11:38:57.065Z,21.37
2022-12-16T11:41:53.415Z,26.30
2022-12-16T11:44:54.131Z,20.87
2022-12-16T11:48:03.168Z,21.53
2022-12-16T11:50:51.443Z,16.83
2022-12-16T11:54:14.887Z,28.03
2022-12-16T11:57:03.513Z,30.17
2022-12-16T12:00:03.535Z,29.07
2022-12-16T12:03:19.058Z,29.20
2022-12-16T12:06:23.588Z,25.27
2022-12-16T12:09:34.714Z,23.20
2022-12-16T12:12:29.765Z,24.83
2022-12-16T12:15:18.375Z,26.50
2022-12-16T12:18:21.278Z,27.03
2022-12-16T12:21:20.926Z,25.47
2022-12-16T12:24:24.398Z,24.13
2022-12-16T12:27:32.155Z,22.13
2022-12-16T12:30:25.623Z,26.13
2022-12-16T12:33:33.069Z,23.33
2022-12-16T12:36:22.418Z,21.10
2022-12-16T12:39:30.930Z,26.87
2022-12-16T12:42:49.621Z,18.20
2022-12-16T12:45:56.690Z,9.60
2022-12-16T12:48:57.808Z,21.60
2022-12-16T12:52:19.153Z,22.40
2022-12-16T12:55:20.846Z,17.97
2022-12-16T12:58:08.198Z,20.70
2022-12-16T13:00:59.949Z,18.97
2022-12-16T13:04:06.445Z,23.43
2022-12-16T13:06:54.748Z,21.87
2022-12-16T13:09:45.239Z,20.57
2022-12-16T13:12:30.487Z,23.43
2022-12-16T13:15:22.360Z,26.07
2022-12-16T13:18:22.605Z,26.43
2022-12-16T13:21:12.865Z,21.13
2022-12-16T13:24:00.721Z,23.03
2022-12-16T13:26:49.497Z,24.17
2022-12-16T13:29:48.261Z,21.37
2022-12-16T13:32:38.274Z,21.30
2022-12-16T13:35:34.426Z,21.47
2022-12-16T13:38:24.451Z,23.03
2022-12-16T13:41:21.305Z,21.97
2022-12-16T13:44:15.774Z,18.53
2022-12-16T13:47:06.329Z,26.90
2022-12-16T13:49:54.029Z,24.70
2022-12-16T13:53:06.776Z,25.03
2022-12-16T13:56:03.370Z,26.03
2022-12-16T13:58:59.475Z,18.87
2022-12-16T14:02:08.631Z,24.43
2022-12-16T14:05:12.067Z,17.70
2022-12-16T14:07:59.090Z,28.23
2022-12-16T14:10:54.298Z,28.23
2022-12-16T14:14:05.991Z,23.23
2022-12-16T14:17:02.229Z,20.83
2022-12-16T14:20:19.307Z,26.97
2022-12-16T14:23:32.376Z,25.83
2022-12-16T14:26:19.239Z,28.33
2022-12-16T14:29:06.664Z,21.60
2022-12-16T14:31:58.865Z,22.60
2022-12-16T14:34:49.330Z,16.50
2022-12-16T14:37:39.624Z,26.23
2022-12-16T14:40:42.167Z,27.67
2022-12-16T14:43:35.035Z,26.10
2022-12-16T14:46:20.737Z,25.97
2022-12-16T14:49:08.148Z,25.33
2022-12-16T14:51:57.444Z,32.40
2022-12-16T14:54:51.283Z,23.37
2022-12-16T14:57:42.205Z,23.27
2022-12-16T15:00:27.603Z,24.37
2022-12-16T15:03:23.284Z,25.10
2022-12-16T15:06:08.836Z,30.33
2022-12-16T15:09:02.592Z,28.70
2022-12-16T15:11:48.119Z,24.57
2022-12-16T15:14:39.158Z,29.00
2022-12-16T15:17:25.063Z,26.90
2022-12-16T15:20:12.207Z,28.70
2022-12-16T15:23:06.368Z,25.50
2022-12-16T15:26:08.646Z,25.73
2022-12-16T15:28:53.623Z,24.03
2022-12-16T15:31:49.687Z,28.63
2022-12-16T15:34:45.337Z,25.17
2022-12-16T15:37:39.358Z,30.33
2022-12-16T15:40:46.824Z,26.17
2022-12-16T15:43:57.336Z,30.00
2022-12-16T15:46:45.586Z,23.50
2022-12-16T15:50:03.490Z,30.63
2022-12-16T15:52:52.114Z,23.30
2022-12-16T15:56:13.704Z,24.67
2022-12-16T15:58:59.023Z,29.83
2022-12-16T16:01:46.584Z,26.23
2022-12-16T16:04:40.487Z,35.23
2022-12-16T16:07:40.312Z,31.97
2022-12-16T16:10:39.077Z,22.90
2022-12-16T16:13:24.337Z,28.97
2022-12-16T16:16:10.349Z,31.67
2022-12-16T16:18:55.635Z,28.93
2022-12-16T16:21:41.497Z,24.37
2022-12-16T16:24:27.076Z,25.00
2022-12-16T16:27:13.543Z,23.57
2022-12-16T16:29:59.027Z,25.07
2022-12-16T16:32:44.316Z,24.07
2022-12-16T16:35:29.805Z,26.07
2022-12-16T16:38:18.385Z,24.57
2022-12-16T16:41:04.194Z,26.27
2022-12-16T16:43:50.292Z,26.87
2022-12-16T16:46:38.566Z,29.17
2022-12-16T16:49:31.982Z,28.57
2022-12-16T16:52:17.348Z,30.47
2022-12-16T16:55:02.633Z,28.50
2022-12-16T16:57:52.679Z,20.10
2022-12-16T17:00:38.299Z,24.47
2022-12-16T17:03:23.930Z,30.00
2022-12-16T17:06:09.227Z,25.57
2022-12-16T17:08:54.580Z,26.97
2022-12-16T17:11:41.009Z,15.50
2022-12-16T17:14:32.502Z,24.77
2022-12-16T17:17:17.914Z,29.13
2022-12-16T17:20:03.357Z,25.07
2022-12-16T17:22:59.573Z,30.13
2022-12-16T17:25:44.896Z,27.17
2022-12-16T17:28:30.826Z,30.80
2022-12-16T17:31:16.158Z,25.73
2022-12-16T17:34:01.381Z,27.03
2022-12-16T17:36:46.703Z,20.43
2022-12-16T17:39:32.188Z,21.40
2022-12-16T17:42:17.549Z,22.10
2022-12-16T17:45:05.510Z,32.43
2022-12-16T17:47:50.987Z,31.50
2022-12-16T17:50:36.605Z,30.87
2022-12-16T17:53:22.019Z,31.10
2022-12-16T17:56:07.557Z,23.07
2022-12-16T17:58:55.797Z,29.77
2022-12-16T18:01:41.333Z,26.37
2022-12-16T18:04:27.246Z,32.23
2022-12-16T18:07:12.525Z,30.87
2022-12-16T18:09:58.365Z,30.97
2022-12-16T18:12:43.980Z,34.43
2022-12-16T18:15:29.255Z,29.60
2022-12-16T18:18:14.815Z,30.43
2022-12-16T18:21:00.170Z,28.53
2022-12-16T18:23:49.170Z,23.83
2022-12-16T18:26:34.380Z,27.30
2022-12-16T18:29:19.986Z,32.27
2022-12-16T18:32:06.976Z,30.43
2022-12-16T18:34:52.573Z,32.10
2022-12-16T18:37:38.110Z,34.20
2022-12-16T18:40:24.107Z,30.27
2022-12-16T18:43:09.353Z,30.50
2022-12-16T18:45:54.783Z,30.70
2022-12-16T18:48:40.080Z,32.20
2022-12-16T18:51:26.385Z,30.17
2022-12-16T18:54:11.781Z,31.37
2022-12-16T18:56:57.140Z,30.33
2022-12-16T18:59:42.564Z,30.53
2022-12-16T19:02:28.097Z,32.43
2022-12-16T19:05:13.253Z,28.57
2022-12-16T19:07:58.704Z,31.67
2022-12-16T19:10:44.127Z,31.83
2022-12-16T19:13:35.845Z,32.33
2022-12-16T19:16:21.498Z,31.00
2022-12-16T19:19:06.719Z,34.13
2022-12-16T19:25:00.165Z,30.97
2022-12-16T19:27:45.402Z,34.40
2022-12-16T19:30:30.856Z,32.30
2022-12-16T19:33:16.229Z,33.77
2022-12-16T19:36:01.691Z,33.37
2022-12-16T19:38:47.072Z,31.30
2022-12-16T19:41:37.003Z,27.47
2022-12-16T19:44:23.297Z,31.47
2022-12-16T19:47:09.358Z,29.43
2022-12-16T19:49:55.037Z,29.77
2022-12-16T19:52:41.940Z,31.70
2022-12-16T19:55:27.206Z,30.13
2022-12-16T19:58:12.477Z,37.87
2022-12-16T20:00:57.948Z,35.17
2022-12-16T20:03:44.085Z,33.73
2022-12-16T20:06:31.338Z,30.10
2022-12-16T20:09:16.667Z,34.43
2022-12-16T20:12:02.850Z,32.27
2022-12-16T20:14:48.483Z,34.40
2022-12-16T20:17:33.991Z,33.70
2022-12-16T20:20:19.278Z,34.07
2022-12-16T20:23:15.276Z,35.23
2022-12-16T20:26:00.611Z,36.33
2022-12-16T20:28:45.993Z,37.33
2022-12-16T20:31:31.583Z,42.63
2022-12-16T20:34:17.078Z,38.33
2022-12-16T20:37:02.703Z,33.60
2022-12-16T20:39:56.344Z,43.03
2022-12-16T20:42:46.055Z,37.17
2022-12-16T20:45:31.801Z,34.30
2022-12-16T20:48:16.964Z,38.77
2022-12-16T20:51:02.310Z,34.60
2022-12-16T20:53:47.852Z,40.20
2022-12-16T20:56:33.317Z,39.33
2022-12-16T20:59:18.930Z,39.43
2022-12-16T21:05:09.512Z,44.17
2022-12-16T21:07:54.936Z,35.07
2022-12-16T21:10:42.394Z,35.27
2022-12-16T21:13:30.409Z,34.83
2022-12-16T21:16:17.699Z,39.00
2022-12-16T21:19:03.196Z,43.87
2022-12-16T21:21:48.742Z,41.93
2022-12-16T21:24:34.157Z,40.90
2022-12-16T21:27:19.556Z,38.17
2022-12-16T21:30:04.884Z,38.37
2022-12-16T21:32:50.242Z,33.17
2022-12-16T21:35:36.850Z,39.63
2022-12-16T21:38:29.861Z,33.77
2022-12-16T21:41:15.346Z,34.80
2022-12-16T21:44:00.694Z,36.50
2022-12-16T21:46:46.156Z,33.93
2022-12-16T21:49:31.672Z,35.60
2022-12-16T21:52:17.195Z,32.73
2022-12-16T21:55:07.007Z,40.37
2022-12-16T22:01:00.578Z,40.97
2022-12-16T22:03:52.749Z,41.93
2022-12-16T22:06:39.027Z,37.17
2022-12-16T22:09:24.542Z,38.13
2022-12-16T22:12:10.209Z,41.80
2022-12-16T22:14:56.043Z,35.30
2022-12-16T22:17:41.414Z,38.27
2022-12-16T22:20:27.497Z,39.30
2022-12-16T22:23:12.803Z,37.60
2022-12-16T22:25:58.161Z,42.87
2022-12-16T22:28:43.716Z,37.10
2022-12-16T22:31:29.064Z,38.20
2022-12-16T22:34:14.371Z,41.13
2022-12-16T22:36:21.965Z,39.60
2022-12-16T22:36:59.622Z,36.80
2022-12-16T22:39:45.348Z,39.43
2022-12-16T22:42:30.761Z,39.27
2022-12-16T22:45:16.231Z,38.00
2022-12-16T22:48:01.871Z,36.53
2022-12-16T22:50:47.369Z,39.10
2022-12-16T22:53:34.864Z,41.23
2022-12-16T22:56:20.273Z,42.10
2022-12-16T22:59:05.646Z,39.23
2022-12-16T23:01:51.117Z,36.60
2022-12-16T23:04:36.989Z,37.33
2022-12-16T23:07:32.953Z,34.70
2022-12-16T23:10:18.310Z,36.77
2022-12-16T23:13:04.260Z,36.47
2022-12-16T23:15:49.453Z,35.93
2022-12-16T23:18:34.893Z,37.23
2022-12-16T23:21:20.397Z,33.47
2022-12-16T23:24:10.668Z,37.27
2022-12-16T23:27:12.834Z,39.13
2022-12-16T23:29:58.019Z,37.63
2022-12-16T23:32:44.017Z,36.10
2022-12-16T23:35:29.651Z,36.57
2022-12-16T23:38:22.716Z,36.10
2022-12-16T23:41:13.830Z,38.07
2022-12-16T23:44:00.421Z,36.97
2022-12-16T23:46:46.273Z,35.57
2022-12-16T23:49:31.642Z,41.93
2022-12-16T23:52:16.960Z,38.50
2022-12-16T23:55:02.338Z,33.30
2022-12-16T23:57:47.929Z,40.10
